Time;durP1;ratioP1;P1;durP2;ratioP2;P2;SDS_P1;SDS_P2;PMS_P1;PMS_P2;Temp;Humidity;BMP_temperature;BMP_pressure;BME280_temperature;BME280_humidity;BME280_pressure;Samples;Min_cycle;Max_cycle;Signal;HPM_P1;HPM_P2
2022/05/09 00:00:28;;;;;;;0.30;0.20;;;;;;;13.06;100.00;101079.06;5012871;28;20477;-76
2022/05/09 00:02:55;;;;;;;0.40;0.20;;;;;;;13.00;100.00;101089.88;5014130;28;20441;-76
2022/05/09 00:05:25;;;;;;;0.40;0.20;;;;;;;12.79;100.00;101077.97;5012759;28;20496;-76
2022/05/09 00:07:52;;;;;;;0.40;0.20;;;;;;;12.96;100.00;101083.75;5012789;28;20457;-76
2022/05/09 00:10:22;;;;;;;0.40;0.20;;;;;;;12.94;100.00;101076.69;5013820;28;20476;-76
2022/05/09 00:12:48;;;;;;;0.30;0.20;;;;;;;12.71;100.00;101091.47;5028744;28;20518;-76
2022/05/09 00:15:17;;;;;;;0.30;0.20;;;;;;;12.78;100.00;101086.88;5001068;28;20496;-76
2022/05/09 00:17:45;;;;;;;0.40;0.30;;;;;;;12.48;100.00;101080.50;5013830;28;20440;-76
2022/05/09 00:20:14;;;;;;;0.30;0.20;;;;;;;12.71;100.00;101082.59;5013760;28;20476;-76
2022/05/09 00:22:52;;;;;;;0.40;0.30;;;;;;;12.54;100.00;101079.47;5008180;28;20883;-76
2022/05/09 00:25:23;;;;;;;0.40;0.30;;;;;;;12.41;100.00;101068.22;5027633;28;20538;-76
2022/05/09 00:27:50;;;;;;;0.40;0.30;;;;;;;12.40;100.00;101075.34;5012170;28;20448;-76
2022/05/09 00:30:19;;;;;;;0.30;0.20;;;;;;;12.36;100.00;101087.00;5013368;28;20499;-76
2022/05/09 00:32:45;;;;;;;0.30;0.20;;;;;;;12.39;100.00;101075.38;5012076;28;20949;-76
2022/05/09 00:35:13;;;;;;;0.60;0.60;;;;;;;12.38;100.00;101073.63;5012221;28;20449;-76
2022/05/09 00:37:40;;;;;;;0.30;0.20;;;;;;;12.03;100.00;101077.97;5012001;28;20452;-76
2022/05/09 00:40:10;;;;;;;0.30;0.20;;;;;;;12.07;100.00;101068.13;5013444;28;20468;-76
2022/05/09 00:42:38;;;;;;;0.30;0.20;;;;;;;12.09;100.00;101077.84;5028329;28;20444;-76
2022/05/09 00:45:06;;;;;;;0.30;0.20;;;;;;;12.15;100.00;101080.34;5013103;28;20570;-76
2022/05/09 00:47:33;;;;;;;0.30;0.20;;;;;;;12.09;100.00;101075.19;5011819;28;20483;-76
2022/05/09 00:50:04;;;;;;;0.37;0.27;;;;;;;12.16;100.00;101075.91;5028383;28;20887;-76
2022/05/09 00:52:31;;;;;;;0.30;0.20;;;;;;;12.24;100.00;101078.41;5012049;28;20459;-76
2022/05/09 00:55:06;;;;;;;0.40;0.33;;;;;;;12.24;100.00;101073.94;5028263;28;20503;-76
2022/05/09 00:57:37;;;;;;;0.30;0.20;;;;;;;12.12;100.00;101072.44;5013125;28;20865;-76
2022/05/09 01:00:14;;;;;;;0.30;0.20;;;;;;;12.00;100.00;101066.50;5012912;28;20895;-76
2022/05/09 01:02:46;;;;;;;0.30;0.20;;;;;;;11.80;100.00;101069.59;5012946;28;20506;-76
2022/05/09 01:05:15;;;;;;;0.40;0.30;;;;;;;11.93;100.00;101068.44;5008646;28;21021;-76
2022/05/09 01:07:43;;;;;;;0.37;0.30;;;;;;;11.95;100.00;101076.38;5002872;28;20503;-76
2022/05/09 01:10:11;;;;;;;1.03;1.03;;;;;;;11.95;100.00;101074.59;5012749;28;20626;-76
2022/05/09 01:12:39;;;;;;;0.60;0.57;;;;;;;12.08;100.00;101077.88;5027881;28;20464;-76
2022/05/09 01:15:10;;;;;;;0.30;0.20;;;;;;;11.90;100.00;101081.78;5012767;28;20514;-76
2022/05/09 01:17:39;;;;;;;0.30;0.20;;;;;;;11.76;100.00;101082.03;5012973;28;20515;-76
2022/05/09 01:20:09;;;;;;;0.30;0.20;;;;;;;11.76;100.00;101083.84;5012679;28;20480;-76
2022/05/09 01:22:37;;;;;;;0.67;0.67;;;;;;;11.94;100.00;101077.31;5027580;28;20522;-76
2022/05/09 01:25:12;;;;;;;0.30;0.20;;;;;;;11.94;100.00;101074.63;4998826;28;20927;-76
2022/05/09 01:27:41;;;;;;;0.30;0.20;;;;;;;11.72;100.00;101082.16;5011555;28;20479;-76
2022/05/09 01:30:16;;;;;;;0.30;0.20;;;;;;;11.97;100.00;101079.88;5027890;28;20978;-76
2022/05/09 01:32:48;;;;;;;0.30;0.30;;;;;;;11.86;100.00;101075.66;5028092;28;20448;-76
2022/05/09 01:35:21;;;;;;;0.30;0.20;;;;;;;11.78;100.00;101071.34;5012663;28;20475;-76
2022/05/09 01:37:55;;;;;;;8.03;1.03;;;;;;;11.76;100.00;101078.50;5031522;28;20482;-76
2022/05/09 01:40:21;;;;;;;0.40;0.40;;;;;;;11.76;100.00;101075.84;5016505;28;20457;-76
2022/05/09 01:42:48;;;;;;;2.50;2.30;;;;;;;11.76;100.00;101076.72;5015792;28;20459;-76
2022/05/09 01:45:15;;;;;;;0.30;0.20;;;;;;;11.76;100.00;101067.84;5016544;28;20985;-76
2022/05/09 01:50:27;;;;;;;0.40;0.30;;;;;;;11.96;100.00;101086.13;5016276;28;20472;-76
2022/05/09 01:52:54;;;;;;;0.40;0.40;;;;;;;11.84;100.00;101084.59;5015085;28;20464;-76
2022/05/09 01:55:20;;;;;;;0.30;0.20;;;;;;;11.65;100.00;101083.16;5031605;28;20536;-76
2022/05/09 01:57:49;;;;;;;2.40;0.80;;;;;;;11.71;100.00;101083.06;5015135;28;20449;-76
2022/05/09 02:00:16;;;;;;;1.03;1.03;;;;;;;11.62;100.00;101092.09;5015053;28;20569;-76
2022/05/09 02:02:43;;;;;;;0.30;0.30;;;;;;;11.62;100.00;101091.22;5016153;28;20457;-76
2022/05/09 02:05:11;;;;;;;0.40;0.30;;;;;;;11.64;100.00;101078.75;5012386;28;20489;-76
2022/05/09 02:07:38;;;;;;;0.30;0.20;;;;;;;11.58;100.00;101080.66;5007004;28;20460;-76
2022/05/09 02:10:05;;;;;;;0.50;0.50;;;;;;;11.49;100.00;101085.25;5031300;28;20881;-76
2022/05/09 02:12:32;;;;;;;0.77;0.77;;;;;;;11.19;100.00;101087.59;5015065;28;20475;-76
2022/05/09 02:14:59;;;;;;;0.30;0.20;;;;;;;11.27;100.00;101091.03;5016148;28;20444;-76
2022/05/09 02:17:26;;;;;;;0.83;0.80;;;;;;;11.27;100.00;101090.13;5014716;28;20938;-76
2022/05/09 02:19:55;;;;;;;4.60;0.83;;;;;;;11.19;100.00;101089.38;5015753;28;20468;-76
2022/05/09 02:22:21;;;;;;;0.30;0.20;;;;;;;11.36;100.00;101087.28;5015879;28;20464;-76
2022/05/09 02:24:48;;;;;;;0.30;0.20;;;;;;;11.23;100.00;101086.63;5031019;28;20487;-76
2022/05/09 02:27:16;;;;;;;0.30;0.20;;;;;;;11.20;100.00;101085.81;5031039;28;20448;-76
2022/05/09 02:29:42;;;;;;;0.30;0.20;;;;;;;11.18;100.00;101083.19;5030842;28;20465;-76
2022/05/09 02:32:11;;;;;;;0.30;0.20;;;;;;;11.33;100.00;101079.38;5014620;28;20874;-76
2022/05/09 02:34:38;;;;;;;0.30;0.20;;;;;;;11.21;100.00;101090.22;5031051;28;20822;-76
2022/05/09 02:37:05;;;;;;;1.17;1.17;;;;;;;11.19;100.00;101092.06;5016442;28;20507;-76
2022/05/09 02:39:32;;;;;;;0.40;0.40;;;;;;;11.27;100.00;101083.03;5036258;28;20460;-76
2022/05/09 02:42:00;;;;;;;0.60;0.60;;;;;;;11.16;100.00;101081.47;5036370;28;20452;-76
2022/05/09 02:44:33;;;;;;;0.30;0.20;;;;;;;10.98;100.00;101083.56;5036018;28;20894;-76
2022/05/09 02:47:00;;;;;;;0.97;0.90;;;;;;;10.93;100.00;101090.72;5035844;28;20444;-76
2022/05/09 02:49:26;;;;;;;0.30;0.20;;;;;;;11.13;100.00;101085.06;5021336;28;20868;-76
2022/05/09 02:51:53;;;;;;;0.30;0.20;;;;;;;11.03;100.00;101083.47;5020763;28;20873;-76
2022/05/09 02:54:19;;;;;;;0.30;0.20;;;;;;;11.17;100.00;101088.53;5021834;28;20445;-76
2022/05/09 02:56:46;;;;;;;0.30;0.20;;;;;;;11.04;100.00;101085.22;5021314;28;20460;-76
2022/05/09 02:59:13;;;;;;;0.30;0.20;;;;;;;10.97;100.00;101087.13;5020196;28;20452;-76
2022/05/09 03:01:39;;;;;;;0.40;0.20;;;;;;;11.06;100.00;101096.72;5035674;28;20531;-76
2022/05/09 03:06:52;;;;;;;0.40;0.30;;;;;;;10.88;100.00;101086.41;5020274;28;20472;-76
2022/05/09 03:09:19;;;;;;;1.80;1.00;;;;;;;10.86;100.00;101086.44;5019846;28;20926;-76
2022/05/09 03:11:45;;;;;;;0.97;0.97;;;;;;;10.71;100.00;101085.81;5034755;28;20524;-77
2022/05/09 03:14:12;;;;;;;0.73;0.73;;;;;;;10.74;100.00;101083.97;5018818;28;20518;-76
2022/05/09 03:16:38;;;;;;;1.17;1.17;;;;;;;10.69;100.00;101069.88;5019794;28;20445;-76
2022/05/09 03:19:05;;;;;;;0.30;0.20;;;;;;;10.63;100.00;101073.50;5018990;28;20484;-76
2022/05/09 03:21:32;;;;;;;0.40;0.37;;;;;;;10.65;100.00;101082.31;5020235;28;20476;-76
2022/05/09 03:23:58;;;;;;;0.40;0.40;;;;;;;10.62;100.00;101077.06;5020594;28;20437;-76
2022/05/09 03:26:25;;;;;;;0.30;0.20;;;;;;;10.62;100.00;101078.84;5020837;28;20488;-76
2022/05/09 03:28:52;;;;;;;0.30;0.20;;;;;;;10.63;100.00;101081.47;5020837;28;20459;-76
2022/05/09 03:31:19;;;;;;;0.30;0.20;;;;;;;10.52;100.00;101088.75;5019139;28;20527;-76
2022/05/09 03:33:46;;;;;;;0.30;0.20;;;;;;;10.60;100.00;101085.97;5018854;28;20452;-76
2022/05/09 03:36:13;;;;;;;0.93;0.93;;;;;;;10.51;100.00;101084.31;5034474;28;20448;-77
2022/05/09 03:38:39;;;;;;;0.40;0.30;;;;;;;10.48;100.00;101081.72;5035366;28;20499;-76
2022/05/09 03:41:06;;;;;;;0.30;0.20;;;;;;;10.45;100.00;101086.22;5019354;28;20499;-77
2022/05/09 03:43:33;;;;;;;0.30;0.20;;;;;;;10.43;100.00;101080.06;5019823;28;20452;-76
2022/05/09 03:46:00;;;;;;;0.30;0.20;;;;;;;10.50;100.00;101090.53;5019410;28;20499;-76
2022/05/09 03:48:27;;;;;;;0.30;0.20;;;;;;;10.25;100.00;101075.88;5019312;28;20495;-76
2022/05/09 03:50:56;;;;;;;1.03;1.03;;;;;;;10.22;100.00;101094.50;5019874;28;20472;-76
2022/05/09 03:53:24;;;;;;;0.30;0.20;;;;;;;10.29;100.00;101091.75;5018048;28;20479;-77
2022/05/09 03:55:51;;;;;;;0.77;0.77;;;;;;;10.35;100.00;101088.13;5017214;28;20479;-76
2022/05/09 03:58:18;;;;;;;0.30;0.20;;;;;;;10.23;100.00;101102.47;5016736;28;20460;-77
2022/05/09 04:00:45;;;;;;;0.80;0.80;;;;;;;10.32;100.00;101093.50;5017168;28;20946;-76
2022/05/09 04:03:12;;;;;;;0.30;0.20;;;;;;;10.39;100.00;101096.00;5019575;28;20448;-77
2022/05/09 04:05:39;;;;;;;0.40;0.40;;;;;;;10.36;100.00;101106.69;5031686;28;20488;-77
2022/05/09 04:08:09;;;;;;;0.30;0.20;;;;;;;10.37;100.00;101104.91;5016023;28;20448;-76
2022/05/09 04:10:37;;;;;;;0.40;0.33;;;;;;;10.48;100.00;101094.13;5015055;28;20460;-77
2022/05/09 04:13:04;;;;;;;0.50;0.50;;;;;;;10.31;100.00;101105.91;5012967;28;20456;-77
2022/05/09 04:18:17;;;;;;;0.30;0.20;;;;;;;10.33;100.00;101097.91;5015707;28;20448;-77
2022/05/09 04:20:46;;;;;;;0.30;0.30;;;;;;;10.23;100.00;101107.78;5015257;28;20464;-77
2022/05/09 04:23:13;;;;;;;1.37;1.27;;;;;;;10.46;100.00;101102.13;5014777;28;20563;-77
2022/05/09 04:25:40;;;;;;;1.17;1.17;;;;;;;10.43;100.00;101099.53;5014796;28;20489;-77
2022/05/09 04:28:12;;;;;;;2.00;0.60;;;;;;;10.40;100.00;101102.22;5014451;28;20499;-77
2022/05/09 04:30:39;;;;;;;0.40;0.30;;;;;;;10.50;100.00;101095.88;5014986;28;20481;-77
2022/05/09 04:33:07;;;;;;;0.40;0.33;;;;;;;11.26;100.00;101107.91;5014831;28;20539;-77
2022/05/09 04:35:35;;;;;;;0.77;0.77;;;;;;;10.89;100.00;101098.78;5013908;28;21008;-76
2022/05/09 04:38:02;;;;;;;0.30;0.20;;;;;;;10.85;100.00;101113.94;5014008;28;20461;-77
2022/05/09 04:40:32;;;;;;;0.30;0.20;;;;;;;10.75;100.00;101106.13;5014843;28;20465;-77
2022/05/09 04:42:59;;;;;;;0.30;0.20;;;;;;;10.73;100.00;101124.75;5001895;28;20813;-76
2022/05/09 04:45:28;;;;;;;2.73;1.03;;;;;;;11.23;100.00;101118.56;5013371;28;20497;-77
2022/05/09 04:47:55;;;;;;;0.40;0.40;;;;;;;11.85;100.00;101108.53;5014412;28;20472;-77
2022/05/09 04:50:25;;;;;;;0.43;0.43;;;;;;;12.32;100.00;101109.28;5014638;28;20515;-76
2022/05/09 04:52:52;;;;;;;0.30;0.20;;;;;;;12.74;100.00;101096.72;5015156;28;20452;-76
2022/05/09 04:55:19;;;;;;;0.40;0.30;;;;;;;13.23;100.00;101114.22;5015016;28;20448;-76
2022/05/09 04:57:49;;;;;;;0.47;0.40;;;;;;;13.53;98.33;101114.31;5014970;28;20491;-76
2022/05/09 05:00:19;;;;;;;0.57;0.50;;;;;;;13.52;98.70;101116.09;5030600;28;20464;-76
2022/05/09 05:02:45;;;;;;;0.30;0.20;;;;;;;13.92;97.04;101121.19;5030375;28;20444;-76
2022/05/09 05:05:12;;;;;;;0.70;0.57;;;;;;;13.98;96.67;101114.81;5030012;28;20453;-76
2022/05/09 05:07:39;;;;;;;0.40;0.30;;;;;;;14.14;96.44;101125.94;5015241;28;20448;-76
2022/05/09 05:10:07;;;;;;;0.30;0.30;;;;;;;14.38;95.62;101117.13;5029676;28;20567;-76
2022/05/09 05:12:34;;;;;;;0.57;0.57;;;;;;;14.61;95.41;101121.81;5025190;28;20543;-76
2022/05/09 05:15:00;;;;;;;1.70;0.90;;;;;;;14.81;93.59;101123.88;5013827;28;20505;-76
2022/05/09 05:17:28;;;;;;;0.73;0.73;;;;;;;14.85;93.06;101119.28;5014186;28;20448;-76
2022/05/09 05:19:54;;;;;;;0.30;0.20;;;;;;;14.96;92.83;101118.00;5029118;28;20476;-76
2022/05/09 05:22:21;;;;;;;0.60;0.50;;;;;;;15.08;91.84;101127.44;5012179;28;20530;-77
2022/05/09 05:24:52;;;;;;;0.40;0.20;;;;;;;15.28;91.55;101118.69;5013589;28;20449;-76
2022/05/09 05:27:21;;;;;;;0.30;0.20;;;;;;;15.21;90.87;101126.06;5028594;28;21084;-76
2022/05/09 05:29:49;;;;;;;0.40;0.30;;;;;;;15.56;89.81;101129.31;5014783;28;20484;-76
2022/05/09 05:32:24;;;;;;;0.30;0.20;;;;;;;15.46;91.38;101138.59;5018191;28;20457;-76
2022/05/09 05:34:51;;;;;;;0.40;0.37;;;;;;;15.83;89.17;101136.41;5018188;28;20847;-76
2022/05/09 05:37:19;;;;;;;0.80;0.80;;;;;;;15.51;90.40;101139.34;5017424;28;20452;-76
2022/05/09 05:39:47;;;;;;;0.40;0.30;;;;;;;15.95;89.90;101135.94;5016802;28;20491;-76
2022/05/09 05:42:17;;;;;;;2.10;2.00;;;;;;;16.16;88.62;101128.88;5033771;28;20526;-76
2022/05/09 05:44:46;;;;;;;0.40;0.40;;;;;;;16.20;88.75;101127.88;5017327;28;20795;-76
2022/05/09 05:47:14;;;;;;;0.53;0.53;;;;;;;16.30;89.73;101137.28;5033011;28;20542;-76
2022/05/09 05:49:41;;;;;;;0.50;0.50;;;;;;;16.29;88.73;101146.28;5017682;28;20452;-76
2022/05/09 05:52:09;;;;;;;0.30;0.20;;;;;;;16.32;88.37;101144.44;5016889;28;20511;-76
2022/05/09 05:54:40;;;;;;;1.03;1.03;;;;;;;16.42;89.14;101135.94;5016211;28;20973;-76
2022/05/09 05:57:38;;;;;;;0.70;0.70;;;;;;;16.71;88.14;101142.00;5016249;28;20441;-76
2022/05/09 06:00:21;;;;;;;0.40;0.40;;;;;;;16.79;87.24;101147.94;5015124;28;20547;-77
2022/05/09 06:02:48;;;;;;;0.50;0.50;;;;;;;17.01;87.71;101146.13;5016332;28;20511;-77
2022/05/09 06:05:17;;;;;;;0.73;0.70;;;;;;;16.96;86.78;101147.25;5013065;28;20448;-76
2022/05/09 06:07:44;;;;;;;1.07;0.70;;;;;;;17.12;86.31;101141.16;5013092;28;20985;-76
2022/05/09 06:10:12;;;;;;;0.70;0.63;;;;;;;17.32;86.13;101145.72;5013912;28;20480;-76
2022/05/09 06:12:39;;;;;;;0.40;0.20;;;;;;;17.27;86.79;101150.41;5026962;28;20460;-76
2022/05/09 06:15:28;;;;;;;0.40;0.40;;;;;;;17.19;87.30;101152.53;5031513;28;20456;-76
2022/05/09 06:17:57;;;;;;;6.93;0.70;;;;;;;17.45;86.45;101146.94;5015270;28;20539;-77
2022/05/09 06:20:26;;;;;;;0.60;0.60;;;;;;;17.48;86.09;101137.84;5015475;28;20472;-77
2022/05/09 06:22:56;;;;;;;2.83;1.07;;;;;;;17.54;86.01;101152.81;5015852;28;20499;-77
2022/05/09 06:25:23;;;;;;;1.07;1.07;;;;;;;17.39;86.82;101154.38;5018440;28;20452;-77
2022/05/09 06:27:51;;;;;;;1.13;0.70;;;;;;;17.33;87.39;101150.16;5019913;28;20448;-77
2022/05/09 06:30:19;;;;;;;1.47;1.37;;;;;;;17.23;88.47;101156.84;5018086;28;20476;-77
2022/05/09 06:32:47;;;;;;;0.60;0.53;;;;;;;17.40;88.43;101150.75;5033980;28;20821;-76
2022/05/09 06:35:20;;;;;;;0.40;0.20;;;;;;;17.41;88.46;101156.06;5017006;28;20449;-77
2022/05/09 06:37:55;;;;;;;0.50;0.30;;;;;;;17.17;90.04;101151.75;5018125;28;20440;-77
2022/05/09 06:40:21;;;;;;;0.63;0.60;;;;;;;17.44;89.24;101150.56;5033483;28;20460;-76
2022/05/09 06:42:51;;;;;;;0.63;0.50;;;;;;;17.33;88.81;101155.53;5033941;28;20962;-77
2022/05/09 06:45:17;;;;;;;0.40;0.20;;;;;;;17.38;89.30;101152.63;5035596;28;20456;-77
2022/05/09 06:47:49;;;;;;;0.47;0.37;;;;;;;17.51;89.32;101153.84;5019039;28;20492;-77
2022/05/09 06:50:25;;;;;;;0.50;0.40;;;;;;;17.60;89.68;101153.44;5018103;28;20884;-77
2022/05/09 06:52:51;;;;;;;0.40;0.30;;;;;;;17.72;88.64;101154.78;5017196;28;20452;-77
2022/05/09 06:55:38;;;;;;;0.67;0.67;;;;;;;18.27;86.83;101155.81;5033354;28;20544;-77
2022/05/09 06:58:16;;;;;;;0.40;0.20;;;;;;;18.16;86.88;101155.44;5018453;28;20961;-77
2022/05/09 07:00:44;;;;;;;1.80;1.70;;;;;;;18.36;84.42;101149.13;5018422;28;20468;-77
2022/05/09 07:03:12;;;;;;;0.40;0.40;;;;;;;18.46;81.59;101153.13;5033109;28;20441;-77
2022/05/09 07:05:43;;;;;;;0.40;0.20;;;;;;;18.09;79.82;101162.03;5032239;28;20461;-77
2022/05/09 07:08:14;;;;;;;1.53;0.67;;;;;;;18.28;80.69;101156.69;5018225;28;20809;-77
2022/05/09 07:10:42;;;;;;;0.40;0.20;;;;;;;18.42;79.01;101156.91;5018200;28;20476;-76
2022/05/09 07:13:08;;;;;;;2.73;2.63;;;;;;;18.32;78.68;101152.91;5034684;28;21113;-77
2022/05/09 07:15:35;;;;;;;0.40;0.20;;;;;;;17.81;79.76;101150.78;5017002;28;20499;-76
2022/05/09 07:18:03;;;;;;;0.67;0.40;;;;;;;18.14;79.58;101154.66;5033068;28;20465;-76
2022/05/09 07:20:33;;;;;;;0.40;0.20;;;;;;;18.18;78.70;101147.28;5017259;28;20473;-78
2022/05/09 07:23:10;;;;;;;0.40;0.20;;;;;;;18.32;78.41;101158.28;5016693;28;20522;-78
2022/05/09 07:25:38;;;;;;;1.80;0.60;;;;;;;18.16;77.91;101149.19;5015725;28;20455;-78
2022/05/09 07:28:06;;;;;;;0.60;0.50;;;;;;;18.19;78.54;101160.69;5016551;28;20492;-79
2022/05/09 07:30:34;;;;;;;0.40;0.20;;;;;;;18.42;77.88;101159.63;5016588;28;20472;-78
2022/05/09 07:33:00;;;;;;;7.70;1.03;;;;;;;18.76;77.05;101169.66;5016749;28;20463;-79
2022/05/09 07:35:27;;;;;;;0.40;0.20;;;;;;;18.79;77.28;101163.28;5015876;28;20441;-78
2022/05/09 07:37:53;;;;;;;0.40;0.20;;;;;;;18.76;76.29;101163.41;5017133;28;20444;-78
2022/05/09 07:40:27;;;;;;;0.40;0.20;;;;;;;18.71;76.37;101160.94;5016587;28;20468;-78
2022/05/09 07:42:54;;;;;;;1.40;1.30;;;;;;;18.85;77.13;101155.75;5014521;28;20460;-78
2022/05/09 07:45:21;;;;;;;0.47;0.40;;;;;;;18.97;74.70;101153.41;5016520;28;20891;-78
2022/05/09 07:47:47;;;;;;;0.40;0.23;;;;;;;19.03;76.22;101156.66;5003282;28;20542;-79
2022/05/09 07:50:16;;;;;;;5.00;1.27;;;;;;;19.09;75.14;101153.69;5031388;28;20518;-78
2022/05/09 07:52:43;;;;;;;0.40;0.20;;;;;;;19.31;74.54;101156.16;5017042;28;20510;-78
2022/05/09 07:55:11;;;;;;;0.40;0.30;;;;;;;19.50;73.70;101166.88;5016221;28;20456;-79
2022/05/09 07:57:37;;;;;;;1.13;1.13;;;;;;;19.51;73.83;101169.50;5015519;28;20440;-78
2022/05/09 08:00:05;;;;;;;1.50;1.47;;;;;;;19.69;72.60;101161.44;5030502;28;20488;-79
2022/05/09 08:02:34;;;;;;;0.40;0.20;;;;;;;19.60;74.06;101161.91;5014127;28;20510;-78
2022/05/09 08:05:00;;;;;;;4.77;1.03;;;;;;;19.28;72.82;101166.22;5014294;28;20452;-78
2022/05/09 08:07:27;;;;;;;0.40;0.20;;;;;;;19.63;73.26;101162.63;5015651;28;20562;-78
2022/05/09 08:09:54;;;;;;;0.40;0.30;;;;;;;19.54;72.92;101171.16;5030376;28;20480;-78
2022/05/09 08:12:20;;;;;;;0.40;0.20;;;;;;;19.50;72.70;101164.19;5030734;28;20538;-78
2022/05/09 08:14:47;;;;;;;0.40;0.30;;;;;;;19.64;73.40;101175.16;5015051;28;20902;-78
2022/05/09 08:17:14;;;;;;;0.60;0.50;;;;;;;19.62;72.34;101177.06;5013758;28;20523;-78
2022/05/09 08:19:41;;;;;;;0.40;0.30;;;;;;;19.88;72.13;101166.75;5013584;28;20522;-78
2022/05/09 08:22:07;;;;;;;0.50;0.40;;;;;;;19.73;72.81;101169.28;5030635;28;20480;-78
2022/05/09 08:24:41;;;;;;;2.80;0.70;;;;;;;19.80;72.16;101164.44;5014965;28;20961;-78
2022/05/09 08:27:08;;;;;;;0.40;0.20;;;;;;;20.51;70.95;101161.50;5029955;28;20500;-78
2022/05/09 08:29:34;;;;;;;0.40;0.20;;;;;;;20.78;70.46;101146.44;5029942;28;20460;-79
2022/05/09 08:32:01;;;;;;;0.40;0.40;;;;;;;20.77;69.62;101162.75;5030117;28;20531;-78
2022/05/09 08:34:28;;;;;;;0.40;0.20;;;;;;;20.49;69.65;101160.72;5013516;28;20468;-79
2022/05/09 08:36:55;;;;;;;0.57;0.47;;;;;;;20.80;70.21;101152.63;5030773;28;20437;-78
2022/05/09 08:39:24;;;;;;;27.57;0.67;;;;;;;20.96;70.02;101158.00;5017809;28;20463;-79
2022/05/09 08:42:06;;;;;;;0.87;0.83;;;;;;;20.41;71.12;101155.69;5032502;28;20901;-79
2022/05/09 08:44:51;;;;;;;0.67;0.67;;;;;;;20.25;71.36;101162.91;5016493;28;20869;-79
2022/05/09 08:47:33;;;;;;;0.40;0.30;;;;;;;20.46;70.72;101160.91;5031799;28;20488;-79
2022/05/09 08:50:48;;;;;;;1.73;1.63;;;;;;;20.47;71.31;101160.81;5032989;28;20519;-79
2022/05/09 08:53:19;;;;;;;0.40;0.30;;;;;;;21.14;70.69;101151.56;4979854;28;20458;-79
2022/05/09 08:55:48;;;;;;;0.40;0.20;;;;;;;21.38;68.77;101151.97;5015058;28;20942;-79
2022/05/09 08:58:20;;;;;;;0.40;0.20;;;;;;;21.63;68.37;101145.94;5017082;28;20468;-79
2022/05/09 09:00:52;;;;;;;0.40;0.30;;;;;;;21.13;68.87;101159.75;5002926;28;20460;-79
2022/05/09 09:03:31;;;;;;;0.50;0.30;;;;;;;20.74;70.46;101152.13;5017404;28;20960;-79
2022/05/09 09:06:31;;;;;;;0.40;0.20;;;;;;;21.18;69.05;101160.34;5016017;28;20523;-79
2022/05/09 09:09:25;;;;;;;12.17;1.03;;;;;;;21.13;67.87;101159.75;5004043;28;20445;-79
2022/05/09 09:12:07;;;;;;;0.50;0.40;;;;;;;20.93;68.50;101158.19;5031636;28;20567;-79
2022/05/09 09:14:48;;;;;;;0.40;0.30;;;;;;;21.25;67.33;101157.25;5015794;28;20448;-79
2022/05/09 09:17:30;;;;;;;0.40;0.20;;;;;;;21.72;66.63;101155.34;5014550;28;20460;-79
2022/05/09 09:20:20;;;;;;;0.40;0.27;;;;;;;21.79;67.34;101152.16;5030389;28;20553;-79
2022/05/09 09:23:18;;;;;;;0.40;0.20;;;;;;;21.65;67.92;101157.53;5010964;28;20476;-79
2022/05/09 09:25:57;;;;;;;0.73;0.73;;;;;;;21.67;67.21;101160.16;5013432;28;20495;-79
2022/05/09 09:28:49;;;;;;;0.80;0.80;;;;;;;21.63;66.93;101155.88;5003079;28;20488;-78
2022/05/09 09:31:24;;;;;;;0.40;0.30;;;;;;;21.61;66.70;101157.81;5014647;28;20547;-79
2022/05/09 09:34:26;;;;;;;0.40;0.20;;;;;;;22.18;65.52;101156.94;5030819;28;20461;-79
2022/05/09 09:37:01;;;;;;;0.77;0.50;;;;;;;22.05;65.35;101153.28;5014301;28;21007;-79
2022/05/09 09:39:28;;;;;;;0.87;0.87;;;;;;;21.82;65.51;101145.69;5014327;28;20502;-79
2022/05/09 09:41:55;;;;;;;0.40;0.20;;;;;;;22.07;66.13;101153.19;5016019;28;20479;-79
2022/05/09 09:44:24;;;;;;;0.50;0.50;;;;;;;22.26;65.13;101139.34;5030319;28;20472;-79
2022/05/09 09:47:26;;;;;;;0.40;0.30;;;;;;;22.15;65.37;101145.44;5014922;28;20484;-79
2022/05/09 09:50:22;;;;;;;0.40;0.30;;;;;;;22.19;65.29;101138.84;5008953;28;20465;-79
2022/05/09 09:52:51;;;;;;;0.63;0.60;;;;;;;21.93;65.35;101140.50;5004485;28;20510;-79
2022/05/09 09:55:35;;;;;;;0.40;0.20;;;;;;;22.04;65.36;101142.50;5030897;28;20488;-79
2022/05/09 09:58:24;;;;;;;0.40;0.20;;;;;;;22.47;64.73;101138.81;5032877;28;20491;-79
2022/05/09 10:01:19;;;;;;;0.50;0.50;;;;;;;22.58;63.20;101148.13;5008111;28;20488;-79
2022/05/09 10:04:02;;;;;;;2.20;2.10;;;;;;;22.39;63.47;101138.47;5015199;28;20479;-79
2022/05/09 10:06:30;;;;;;;0.50;0.40;;;;;;;22.71;63.25;101136.38;5018523;28;20456;-79
2022/05/09 10:09:04;;;;;;;0.77;0.77;;;;;;;22.65;63.19;101142.22;5035493;28;20456;-79
2022/05/09 10:11:31;;;;;;;1.07;1.07;;;;;;;22.59;61.55;101139.00;5016300;28;20476;-79
2022/05/09 10:14:04;;;;;;;2.20;1.40;;;;;;;22.53;62.17;101128.59;5034820;28;20444;-79
2022/05/09 10:16:34;;;;;;;0.80;0.80;;;;;;;22.53;61.47;101123.16;5018113;28;20415;-79
2022/05/09 10:19:03;;;;;;;3.23;3.03;;;;;;;22.25;62.82;101122.22;5035342;28;20468;-79
2022/05/09 10:24:50;;;;;;;0.40;0.20;;;;;;;22.29;63.57;101115.63;5019740;28;20475;-78
2022/05/09 10:27:22;;;;;;;0.40;0.20;;;;;;;22.55;63.31;101111.25;5035054;28;20992;-79
2022/05/09 10:30:00;;;;;;;0.50;0.40;;;;;;;23.03;62.70;101099.03;5037223;28;20503;-79
2022/05/09 10:32:49;;;;;;;0.50;0.30;;;;;;;22.88;62.64;101099.16;5038468;28;20542;-79
2022/05/09 10:35:26;;;;;;;0.40;0.20;;;;;;;23.54;61.78;101100.97;5038447;28;20467;-79
2022/05/09 10:38:25;;;;;;;1.67;1.57;;;;;;;23.23;60.19;101102.22;5035472;28;20547;-79
2022/05/09 10:41:03;;;;;;;0.40;0.30;;;;;;;23.20;60.52;101099.72;4983055;28;21067;-79
2022/05/09 10:43:35;;;;;;;2.50;0.47;;;;;;;23.26;59.47;101091.16;5018371;28;20954;-79
2022/05/09 10:46:11;;;;;;;0.40;0.30;;;;;;;23.40;58.57;101096.50;5018326;28;20423;-79
2022/05/09 10:49:05;;;;;;;0.50;0.33;;;;;;;23.27;57.91;101088.31;5017304;28;20498;-79
2022/05/09 10:52:14;;;;;;;0.50;0.40;;;;;;;23.82;56.95;101079.06;5018309;28;20499;-79
2022/05/09 10:55:19;;;;;;;1.27;1.27;;;;;;;23.20;57.18;101081.59;5008349;28;20449;-78
2022/05/09 10:58:10;;;;;;;0.50;0.40;;;;;;;23.63;57.57;101076.78;5003490;28;20964;-79
2022/05/09 11:00:45;;;;;;;0.40;0.27;;;;;;;23.61;57.18;101072.47;5032348;28;20465;-79
2022/05/09 11:03:38;;;;;;;0.50;0.40;;;;;;;23.76;55.93;101079.50;5033238;28;20415;-79
2022/05/09 11:06:07;;;;;;;2.23;1.40;;;;;;;23.68;57.17;101072.88;5007165;28;20453;-80
2022/05/09 11:08:52;;;;;;;0.50;0.37;;;;;;;23.48;56.16;101060.69;5014615;28;20474;-79
2022/05/09 11:11:47;;;;;;;1.63;0.60;;;;;;;23.44;56.72;101062.75;5016801;28;20499;-79
2022/05/09 11:14:46;;;;;;;1.50;1.43;;;;;;;23.21;56.05;101066.19;5018311;28;20427;-80
2022/05/09 11:17:48;;;;;;;0.60;0.57;;;;;;;23.01;56.40;101064.81;5022930;28;20887;-79
2022/05/09 11:20:21;;;;;;;0.53;0.50;;;;;;;23.61;56.59;101062.47;5006048;28;20460;-80
2022/05/09 11:22:52;;;;;;;0.50;0.30;;;;;;;23.17;54.90;101056.53;5016834;28;20435;-80
2022/05/09 11:25:24;;;;;;;0.50;0.30;;;;;;;23.53;55.54;101059.38;5033748;28;20572;-79
2022/05/09 11:27:54;;;;;;;0.53;0.53;;;;;;;23.75;54.95;101053.34;5033011;28;21005;-79
2022/05/09 11:30:38;;;;;;;0.40;0.30;;;;;;;23.52;54.43;101049.50;5018514;28;20500;-79
2022/05/09 11:33:30;;;;;;;0.40;0.20;;;;;;;23.73;54.21;101035.44;5033535;28;21012;-80
2022/05/09 11:36:23;;;;;;;0.40;0.20;;;;;;;23.82;53.78;101027.47;5033606;28;20495;-80
2022/05/09 11:38:53;;;;;;;0.50;0.30;;;;;;;23.73;53.97;101033.59;5012208;28;20530;-80
2022/05/09 11:41:49;;;;;;;0.50;0.50;;;;;;;23.55;54.62;101035.72;5032745;28;20515;-80
2022/05/09 11:44:24;;;;;;;2.10;1.60;;;;;;;23.72;52.48;101020.97;4995189;28;20439;-80
2022/05/09 11:47:15;;;;;;;0.40;0.20;;;;;;;24.05;51.66;101023.09;5017471;28;20896;-80
2022/05/09 11:50:03;;;;;;;0.50;0.40;;;;;;;23.80;52.61;101021.28;5022251;28;20506;-80
2022/05/09 11:52:50;;;;;;;0.40;0.30;;;;;;;24.23;51.72;101010.00;5032330;28;20483;-80
2022/05/09 11:55:21;;;;;;;0.40;0.23;;;;;;;23.78;53.24;101014.22;5032167;28;20444;-80